Time;durP1;ratioP1;P1;durP2;ratioP2;P2;SDS_P1;SDS_P2;PMS_P1;PMS_P2;Temp;Humidity;BMP_temperature;BMP_pressure;BME280_temperature;BME280_humidity;BME280_pressure;Samples;Min_cycle;Max_cycle;Signal;HPM_P1;HPM_P2
2021/05/15 00:02:23;;;;;;;18.02;12.38;;;17.40;58.00;;;;;;6129459;23;20017;-68
2021/05/15 00:04:49;;;;;;;17.10;12.40;;;17.30;58.70;;;;;;6181683;23;20067;-67
2021/05/15 00:07:14;;;;;;;12.75;9.63;;;17.30;59.70;;;;;;6181381;23;20024;-67
2021/05/15 00:09:40;;;;;;;14.05;11.18;;;17.30;58.90;;;;;;6153887;23;20017;-69
2021/05/15 00:12:07;;;;;;;16.05;11.00;;;17.30;59.00;;;;;;6181484;23;20013;-69
2021/05/15 00:14:33;;;;;;;20.83;13.23;;;17.30;59.40;;;;;;6181291;23;20020;-68
2021/05/15 00:16:59;;;;;;;16.95;11.80;;;17.30;59.60;;;;;;6181212;23;20021;-69
2021/05/15 00:19:25;;;;;;;20.17;12.93;;;17.40;59.60;;;;;;6180666;23;20016;-68
2021/05/15 00:21:51;;;;;;;16.35;12.25;;;17.40;59.60;;;;;;6154020;23;20016;-68
2021/05/15 00:24:17;;;;;;;16.63;11.80;;;17.50;59.50;;;;;;6180700;23;20017;-68
2021/05/15 00:26:42;;;;;;;15.68;11.23;;;17.50;60.00;;;;;;6183625;23;20024;-65
2021/05/15 00:29:09;;;;;;;17.20;10.85;;;17.40;59.50;;;;;;6154478;23;20013;-65
2021/05/15 00:31:36;;;;;;;14.23;10.27;;;17.40;59.50;;;;;;6181055;23;20131;-64
2021/05/15 00:34:02;;;;;;;14.25;10.48;;;17.40;59.50;;;;;;6181382;23;20009;-64
2021/05/15 00:36:28;;;;;;;15.32;10.75;;;17.40;59.20;;;;;;6182835;23;20017;-64
2021/05/15 00:38:53;;;;;;;14.43;10.57;;;17.40;59.30;;;;;;6181682;23;20343;-64
2021/05/15 00:41:19;;;;;;;14.40;11.00;;;17.50;59.30;;;;;;6156186;23;20474;-67
2021/05/15 00:44:13;;;;;;;16.15;10.68;;;17.50;59.20;;;;;;6182218;23;20021;-68
2021/05/15 00:46:40;;;;;;;13.13;10.18;;;17.50;59.10;;;;;;6183487;23;20017;-68
2021/05/15 00:49:06;;;;;;;14.23;9.82;;;17.60;59.60;;;;;;6183962;23;20140;-69
2021/05/15 00:51:33;;;;;;;14.20;10.23;;;17.60;59.10;;;;;;6158765;23;20056;-67
2021/05/15 00:54:00;;;;;;;13.10;10.18;;;17.60;59.10;;;;;;6182916;23;20016;-67
2021/05/15 00:56:28;;;;;;;12.32;9.23;;;17.60;59.00;;;;;;6182965;23;20673;-68
2021/05/15 00:58:55;;;;;;;14.60;10.35;;;17.60;58.80;;;;;;6181872;23;20013;-67
2021/05/15 01:01:21;;;;;;;13.48;9.68;;;17.60;58.60;;;;;;6182514;23;20446;-68
2021/05/15 01:03:47;;;;;;;16.50;10.95;;;17.60;58.70;;;;;;6155309;23;20017;-68
2021/05/15 01:06:13;;;;;;;17.20;11.60;;;17.60;58.70;;;;;;6157357;23;20017;-68
2021/05/15 01:08:44;;;;;;;12.68;9.48;;;17.60;58.70;;;;;;6182195;23;20017;-68
2021/05/15 01:11:11;;;;;;;12.30;9.45;;;17.60;58.70;;;;;;6155320;23;20016;-69
2021/05/15 01:13:37;;;;;;;15.75;9.85;;;17.60;58.70;;;;;;6184346;23;20044;-68
2021/05/15 01:16:04;;;;;;;13.95;9.00;;;17.60;58.80;;;;;;6182653;23;20071;-68
2021/05/15 01:18:30;;;;;;;12.88;9.00;;;17.60;58.80;;;;;;6182186;23;20013;-69
2021/05/15 01:21:00;;;;;;;14.10;9.40;;;17.60;58.90;;;;;;6182089;23;20131;-69
2021/05/15 01:23:26;;;;;;;12.50;9.30;;;17.60;59.00;;;;;;6155262;23;20092;-68
2021/05/15 01:25:52;;;;;;;14.75;10.25;;;17.70;59.10;;;;;;6181828;23;20056;-69
2021/05/15 01:28:18;;;;;;;13.68;9.55;;;17.60;59.00;;;;;;6157574;23;20013;-68
2021/05/15 01:30:44;;;;;;;14.55;9.32;;;17.70;59.00;;;;;;6182314;23;20083;-68
2021/05/15 01:33:11;;;;;;;13.25;9.05;;;17.70;58.90;;;;;;6181737;23;20787;-69
2021/05/15 01:35:37;;;;;;;11.23;8.60;;;17.70;58.80;;;;;;6182924;23;20013;-68
2021/05/15 01:38:03;;;;;;;11.13;9.27;;;17.60;58.70;;;;;;6182218;23;20024;-68
2021/05/15 01:40:28;;;;;;;11.18;8.68;;;17.70;58.60;;;;;;6156254;23;20020;-68
2021/05/15 01:42:54;;;;;;;11.68;8.18;;;17.60;58.50;;;;;;6182958;23;20016;-68
2021/05/15 01:45:20;;;;;;;12.23;8.45;;;17.60;58.80;;;;;;6157324;23;20559;-69
2021/05/15 01:47:46;;;;;;;11.68;7.90;;;17.50;58.50;;;;;;6181648;23;20092;-68
2021/05/15 01:50:14;;;;;;;9.98;7.78;;;17.40;58.90;;;;;;6181824;23;20107;-68
2021/05/15 01:52:40;;;;;;;11.05;7.88;;;17.40;59.20;;;;;;6181330;23;20148;-69
2021/05/15 01:55:16;;;;;;;9.70;7.40;;;17.40;59.00;;;;;;6182258;23;20077;-68
2021/05/15 01:57:42;;;;;;;11.10;7.70;;;17.30;58.90;;;;;;6183213;23;20048;-69
2021/05/15 02:00:09;;;;;;;9.07;7.45;;;17.30;58.90;;;;;;6181866;23;20036;-68
2021/05/15 02:02:34;;;;;;;10.57;7.55;;;17.20;59.10;;;;;;6181040;23;20221;-68
2021/05/15 02:05:00;;;;;;;9.90;7.25;;;17.20;59.20;;;;;;6181625;23;20024;-69
2021/05/15 02:07:26;;;;;;;9.88;7.00;;;17.30;59.20;;;;;;6130633;23;20027;-68
2021/05/15 02:09:51;;;;;;;12.25;7.32;;;17.30;59.20;;;;;;6153129;23;20104;-69
2021/05/15 02:12:17;;;;;;;8.82;6.90;;;17.30;59.20;;;;;;6180354;23;20016;-68
2021/05/15 02:14:43;;;;;;;9.38;7.03;;;17.30;59.10;;;;;;6183208;23;20443;-68
2021/05/15 02:17:09;;;;;;;10.60;6.88;;;17.30;59.00;;;;;;6180684;23;20144;-69
2021/05/15 02:19:35;;;;;;;10.00;6.82;;;17.40;59.00;;;;;;6155899;23;20466;-69
2021/05/15 02:22:04;;;;;;;9.07;6.90;;;17.40;59.00;;;;;;6180678;23;20068;-69
2021/05/15 02:24:30;;;;;;;10.05;7.25;;;17.40;58.90;;;;;;6181821;23;20017;-70
2021/05/15 02:26:55;;;;;;;9.15;7.03;;;17.40;58.90;;;;;;6154164;23;20021;-68
2021/05/15 02:29:22;;;;;;;8.40;6.90;;;17.30;58.80;;;;;;6180225;23;20706;-68
2021/05/15 02:31:47;;;;;;;10.20;7.07;;;17.40;58.90;;;;;;6180110;23;20017;-69
2021/05/15 02:34:13;;;;;;;9.82;6.13;;;17.30;58.80;;;;;;6180540;23;20044;-69
2021/05/15 02:36:39;;;;;;;7.85;5.90;;;17.30;58.70;;;;;;6181458;23;20339;-69
2021/05/15 02:39:07;;;;;;;10.10;7.47;;;17.20;58.30;;;;;;6154588;23;20027;-68
2021/05/15 02:41:33;;;;;;;10.60;7.18;;;17.00;58.10;;;;;;6156645;23;20013;-68
2021/05/15 02:43:59;;;;;;;8.77;6.90;;;16.60;57.80;;;;;;6156346;23;20013;-69
2021/05/15 02:46:24;;;;;;;9.50;6.88;;;16.30;59.10;;;;;;6181530;23;20020;-68
2021/05/15 02:48:50;;;;;;;9.27;7.18;;;16.00;59.20;;;;;;6181073;23;20017;-69
2021/05/15 02:51:16;;;;;;;10.15;7.47;;;15.40;58.40;;;;;;6183734;23;20053;-68
2021/05/15 02:53:42;;;;;;;11.40;7.47;;;14.80;59.50;;;;;;6183408;23;20335;-68
2021/05/15 02:56:08;;;;;;;9.88;7.20;;;14.30;61.30;;;;;;6181946;23;20017;-69
2021/05/15 02:58:33;;;;;;;7.78;6.78;;;14.30;63.30;;;;;;6155913;23;20551;-68
2021/05/15 03:00:59;;;;;;;7.43;6.22;;;14.30;64.10;;;;;;6181404;23;20454;-68
2021/05/15 03:03:25;;;;;;;8.70;6.20;;;14.60;64.90;;;;;;6181183;23;20643;-69
2021/05/15 03:05:51;;;;;;;9.43;7.15;;;14.90;64.90;;;;;;6181696;23;20020;-68
2021/05/15 03:08:21;;;;;;;10.50;6.90;;;15.30;64.30;;;;;;6156819;23;20040;-68
2021/05/15 03:10:47;;;;;;;8.10;6.05;;;15.60;63.00;;;;;;6154629;23;20024;-68
2021/05/15 03:13:12;;;;;;;8.10;6.05;;;15.90;62.20;;;;;;6181646;23;20059;-69
2021/05/15 03:15:40;;;;;;;8.15;6.03;;;16.10;62.00;;;;;;6156900;23;20039;-68
2021/05/15 03:18:05;;;;;;;7.47;5.63;;;16.20;61.80;;;;;;6180423;23;20024;-68
2021/05/15 03:20:34;;;;;;;7.30;5.50;;;16.30;61.50;;;;;;6130354;23;20028;-69
2021/05/15 03:23:00;;;;;;;7.65;5.53;;;16.40;61.10;;;;;;6180881;23;20024;-68
2021/05/15 03:25:26;;;;;;;12.77;8.85;;;16.40;61.20;;;;;;6154191;23;20013;-68
2021/05/15 03:27:51;;;;;;;8.82;6.53;;;16.30;59.60;;;;;;6181600;23;20013;-68
2021/05/15 03:30:18;;;;;;;8.77;6.50;;;16.10;60.80;;;;;;6181356;23;20036;-68
2021/05/15 03:32:44;;;;;;;7.95;6.07;;;16.00;61.50;;;;;;6182221;23;20506;-69
2021/05/15 03:35:12;;;;;;;8.93;6.18;;;16.00;61.20;;;;;;6182796;23;20037;-68
2021/05/15 03:37:39;;;;;;;7.63;6.30;;;15.70;61.50;;;;;;6179984;23;20009;-68
2021/05/15 03:40:07;;;;;;;6.78;5.82;;;15.60;62.80;;;;;;6179983;23;20013;-68
2021/05/15 03:42:33;;;;;;;10.25;8.02;;;15.70;62.70;;;;;;6180836;23;20067;-68
2021/05/15 03:44:59;;;;;;;7.35;5.65;;;15.70;61.80;;;;;;6180759;23;20013;-68
2021/05/15 03:47:24;;;;;;;8.18;7.32;;;15.70;61.60;;;;;;6181536;23;20699;-68
2021/05/15 03:49:50;;;;;;;9.90;7.85;;;15.70;61.00;;;;;;6181387;23;20020;-68
2021/05/15 03:52:16;;;;;;;8.63;6.18;;;15.50;60.10;;;;;;6153968;23;20043;-68
2021/05/15 03:54:45;;;;;;;8.90;6.78;;;15.40;61.90;;;;;;6180961;23;20043;-68
2021/05/15 03:57:11;;;;;;;11.88;9.27;;;15.30;62.70;;;;;;6156655;23;20088;-69
2021/05/15 03:59:36;;;;;;;11.73;8.65;;;14.90;60.70;;;;;;6181575;23;20033;-69
2021/05/15 04:02:02;;;;;;;11.65;9.40;;;14.30;61.20;;;;;;6182390;23;20017;-68
2021/05/15 04:04:28;;;;;;;13.48;8.90;;;13.70;62.30;;;;;;6156404;23;20502;-68
2021/05/15 04:06:54;;;;;;;9.60;5.63;;;13.20;63.10;;;;;;6184650;23;20095;-67
2021/05/15 04:09:20;;;;;;;7.32;5.07;;;13.10;66.50;;;;;;6182178;23;20024;-68
2021/05/15 04:11:46;;;;;;;9.50;5.65;;;13.40;68.60;;;;;;6156167;23;20013;-68
2021/05/15 04:16:59;;;;;;;10.00;7.50;;;14.50;67.10;;;;;;6182290;23;20040;-68
2021/05/15 04:19:26;;;;;;;6.22;5.28;;;14.70;65.10;;;;;;6183287;23;20017;-68
2021/05/15 04:21:52;;;;;;;7.07;5.75;;;14.90;64.70;;;;;;6181471;23;20530;-68
2021/05/15 04:24:18;;;;;;;6.80;5.03;;;15.20;64.80;;;;;;6182916;23;20024;-65
2021/05/15 04:26:44;;;;;;;8.23;5.05;;;15.40;64.40;;;;;;6183088;23;20435;-64
2021/05/15 04:29:09;;;;;;;8.13;4.90;;;15.70;63.80;;;;;;6182726;23;20447;-64
2021/05/15 04:31:35;;;;;;;7.15;5.13;;;15.90;63.20;;;;;;6182143;23;20013;-65
2021/05/15 04:34:01;;;;;;;7.60;5.80;;;16.10;62.60;;;;;;6181459;23;20339;-65
2021/05/15 04:36:27;;;;;;;9.23;5.57;;;16.00;61.40;;;;;;6156870;23;20027;-65
2021/05/15 04:38:53;;;;;;;11.43;8.70;;;15.70;62.50;;;;;;6181195;23;20092;-65
2021/05/15 04:41:20;;;;;;;10.55;7.65;;;15.30;61.10;;;;;;6181188;23;20016;-65
2021/05/15 04:43:46;;;;;;;10.20;8.77;;;14.50;60.80;;;;;;6182345;23;20097;-65
2021/05/15 04:46:12;;;;;;;10.77;6.55;;;13.60;62.10;;;;;;6181931;23;20112;-65
2021/05/15 04:48:38;;;;;;;10.02;8.57;;;12.70;65.70;;;;;;6154604;23;20017;-65
2021/05/15 04:51:05;;;;;;;13.45;8.15;;;12.20;66.50;;;;;;6181610;23;20099;-64
2021/05/15 04:53:32;;;;;;;10.02;8.15;;;11.80;67.50;;;;;;6181093;23;20067;-64
2021/05/15 04:55:57;;;;;;;12.75;6.93;;;11.40;68.50;;;;;;6180797;23;20013;-64
2021/05/15 04:58:23;;;;;;;7.68;6.20;;;11.50;72.90;;;;;;6181540;23;20496;-64
2021/05/15 05:00:50;;;;;;;6.35;4.72;;;12.00;74.00;;;;;;6183757;23;20013;-64
2021/05/15 05:03:16;;;;;;;7.82;6.13;;;12.60;73.50;;;;;;6182114;23;20095;-64
2021/05/15 05:05:42;;;;;;;8.90;6.50;;;13.30;71.80;;;;;;6183722;23;20021;-64
2021/05/15 05:08:08;;;;;;;7.20;5.78;;;13.90;68.60;;;;;;6181888;23;20100;-64
2021/05/15 05:10:34;;;;;;;6.22;4.95;;;14.00;67.90;;;;;;6183033;23;20088;-64
2021/05/15 05:13:04;;;;;;;7.15;6.00;;;14.00;68.40;;;;;;6180915;23;20024;-64
2021/05/15 05:15:30;;;;;;;12.57;7.88;;;14.10;67.70;;;;;;6131387;23;20343;-64
2021/05/15 05:17:56;;;;;;;12.85;7.90;;;14.20;66.20;;;;;;6183381;23;20064;-68
2021/05/15 05:20:22;;;;;;;14.38;8.68;;;14.20;64.40;;;;;;6183258;23;20009;-67
2021/05/15 05:22:48;;;;;;;12.00;9.10;;;13.60;63.70;;;;;;6154607;23;20019;-68
2021/05/15 05:25:16;;;;;;;10.98;9.23;;;13.10;65.10;;;;;;6181769;23;20450;-68
2021/05/15 05:27:46;;;;;;;10.95;9.13;;;12.50;66.70;;;;;;6183115;23;20040;-69
2021/05/15 05:30:13;;;;;;;10.00;8.88;;;12.20;68.30;;;;;;6182628;23;20013;-68
2021/05/15 05:32:39;;;;;;;12.32;9.43;;;12.00;69.30;;;;;;6180261;23;20359;-68
2021/05/15 05:35:05;;;;;;;14.52;9.70;;;11.60;70.30;;;;;;6180810;23;20020;-62
2021/05/15 05:37:31;;;;;;;11.30;8.77;;;11.60;71.80;;;;;;6180797;23;20020;-65
2021/05/15 05:39:57;;;;;;;13.90;10.48;;;11.50;72.50;;;;;;6181955;23;20570;-65
2021/05/15 05:42:23;;;;;;;11.70;9.05;;;11.60;73.10;;;;;;6181647;23;20367;-65
2021/05/15 05:44:48;;;;;;;11.77;8.50;;;11.60;73.40;;;;;;6182188;23;20047;-65
2021/05/15 05:47:14;;;;;;;14.60;10.73;;;11.60;72.70;;;;;;6180736;23;20459;-65
2021/05/15 05:49:40;;;;;;;17.05;10.55;;;11.60;73.20;;;;;;6155309;23;20016;-66
2021/05/15 05:52:06;;;;;;;14.30;9.85;;;11.50;72.70;;;;;;6181758;23;20435;-64
2021/05/15 05:54:32;;;;;;;14.88;10.15;;;11.30;72.60;;;;;;6181275;23;20134;-66
2021/05/15 05:56:57;;;;;;;10.05;7.80;;;11.20;72.90;;;;;;6180725;23;20040;-65
2021/05/15 05:59:23;;;;;;;13.77;10.40;;;11.10;74.90;;;;;;6155880;23;20037;-66
2021/05/15 06:01:49;;;;;;;14.25;11.02;;;11.30;76.00;;;;;;6181183;23;20462;-64
2021/05/15 06:04:14;;;;;;;12.68;9.80;;;11.30;74.40;;;;;;6182505;23;20044;-63
2021/05/15 06:06:40;;;;;;;16.73;10.13;;;11.10;74.00;;;;;;6181897;23;20020;-64
2021/05/15 06:09:06;;;;;;;15.98;11.35;;;10.90;74.80;;;;;;6180861;23;20017;-64
2021/05/15 06:11:32;;;;;;;16.70;12.32;;;10.70;75.60;;;;;;6180844;23;20016;-65
2021/05/15 06:13:57;;;;;;;11.55;9.68;;;10.60;76.10;;;;;;6154438;23;20337;-63
2021/05/15 06:16:23;;;;;;;16.38;11.93;;;10.60;76.90;;;;;;6156116;23;20387;-65
2021/05/15 06:18:49;;;;;;;19.55;10.95;;;10.60;78.00;;;;;;6156169;23;20092;-65
2021/05/15 06:21:15;;;;;;;18.05;11.00;;;10.60;77.20;;;;;;6182017;23;20079;-64
2021/05/15 06:23:40;;;;;;;18.33;12.20;;;10.50;77.10;;;;;;6180129;23;20668;-62
2021/05/15 06:26:10;;;;;;;14.20;12.48;;;10.50;77.20;;;;;;6155035;23;20021;-64
2021/05/15 06:28:38;;;;;;;16.23;12.10;;;10.50;77.10;;;;;;6180092;23;20067;-64
2021/05/15 06:31:05;;;;;;;18.98;12.90;;;10.60;77.00;;;;;;6181171;23;20020;-64
2021/05/15 06:33:32;;;;;;;15.85;11.30;;;10.60;76.50;;;;;;6181215;23;20327;-64
2021/05/15 06:35:58;;;;;;;15.38;11.90;;;10.60;76.20;;;;;;6155696;23;20009;-64
2021/05/15 06:38:25;;;;;;;18.77;12.98;;;10.50;76.10;;;;;;6180669;23;20036;-65
2021/05/15 06:40:51;;;;;;;16.08;10.25;;;10.50;76.20;;;;;;6181576;23;20068;-63
2021/05/15 06:43:17;;;;;;;16.00;10.73;;;10.50;76.40;;;;;;6180269;23;20009;-65
2021/05/15 06:45:43;;;;;;;15.90;10.45;;;10.60;75.90;;;;;;6183019;23;20096;-66
2021/05/15 06:48:09;;;;;;;14.07;11.10;;;10.60;75.70;;;;;;6154063;23;20044;-64
2021/05/15 06:50:35;;;;;;;18.23;12.00;;;10.60;75.60;;;;;;6155835;23;20092;-65
2021/05/15 06:53:00;;;;;;;15.05;10.27;;;10.60;76.10;;;;;;6179632;23;20013;-68
2021/05/15 06:55:26;;;;;;;16.50;11.10;;;10.60;76.50;;;;;;6179984;23;20015;-69
2021/05/15 06:57:53;;;;;;;16.38;11.68;;;10.70;76.90;;;;;;6154800;23;20080;-69
2021/05/15 07:00:20;;;;;;;17.30;12.48;;;10.80;77.20;;;;;;6180636;23;20573;-69
2021/05/15 07:02:46;;;;;;;15.80;12.00;;;10.90;76.80;;;;;;6178503;23;20023;-68
2021/05/15 07:05:12;;;;;;;14.05;10.93;;;11.00;76.40;;;;;;6179112;23;20092;-67
2021/05/15 07:07:38;;;;;;;14.18;11.35;;;11.00;76.00;;;;;;6180757;23;20079;-67
2021/05/15 07:10:04;;;;;;;16.38;11.52;;;10.90;75.80;;;;;;6180728;23;20115;-69
2021/05/15 07:12:30;;;;;;;20.98;12.60;;;11.00;75.80;;;;;;6178820;23;20096;-70
2021/05/15 07:14:56;;;;;;;15.10;10.98;;;11.10;75.70;;;;;;6179461;23;20071;-69
2021/05/15 07:17:25;;;;;;;16.27;12.18;;;11.10;75.60;;;;;;6180236;23;20021;-64
2021/05/15 07:19:55;;;;;;;16.08;12.90;;;11.30;75.70;;;;;;6180133;23;20092;-64
2021/05/15 07:22:24;;;;;;;19.08;11.93;;;11.40;74.70;;;;;;6154679;23;20466;-69
2021/05/15 07:24:52;;;;;;;18.40;11.98;;;11.30;74.50;;;;;;6180983;23;20036;-70
2021/05/15 07:27:19;;;;;;;19.10;12.43;;;11.10;74.70;;;;;;6153580;23;20021;-69
2021/05/15 07:29:46;;;;;;;17.92;12.20;;;11.10;75.60;;;;;;6180145;23;20017;-69
2021/05/15 07:32:12;;;;;;;19.85;11.68;;;10.90;76.00;;;;;;6180401;23;20017;-68
2021/05/15 07:34:38;;;;;;;15.90;11.90;;;10.90;76.30;;;;;;6181246;23;20041;-70
2021/05/15 07:37:03;;;;;;;19.35;13.50;;;10.80;76.80;;;;;;6181608;23;20400;-69
2021/05/15 07:39:30;;;;;;;18.15;12.20;;;10.70;76.70;;;;;;6182040;23;20021;-69
2021/05/15 07:41:55;;;;;;;17.48;12.32;;;10.70;77.00;;;;;;6156421;23;20024;-68
2021/05/15 07:44:23;;;;;;;21.35;12.40;;;10.70;77.10;;;;;;6182543;23;20400;-69
2021/05/15 07:46:49;;;;;;;18.85;13.00;;;10.80;77.10;;;;;;6181488;23;20024;-69
2021/05/15 07:49:17;;;;;;;15.48;11.38;;;10.80;76.80;;;;;;6155210;23;20017;-69
2021/05/15 07:51:44;;;;;;;15.10;11.05;;;10.80;76.60;;;;;;6155503;23;20390;-69
2021/05/15 07:54:10;;;;;;;20.23;13.25;;;10.90;76.60;;;;;;6154429;23;20343;-70
2021/05/15 07:56:35;;;;;;;19.02;12.13;;;11.00;76.70;;;;;;6182610;23;20013;-70
2021/05/15 07:59:01;;;;;;;22.85;13.38;;;11.00;76.20;;;;;;6182982;23;20021;-74
2021/05/15 08:01:27;;;;;;;17.23;12.38;;;11.00;75.90;;;;;;6183879;23;20386;-75
2021/05/15 08:03:53;;;;;;;18.35;11.77;;;11.00;75.80;;;;;;6155744;23;20379;-74
2021/05/15 08:06:18;;;;;;;17.30;11.63;;;11.00;76.20;;;;;;6181544;23;20124;-74
2021/05/15 08:08:44;;;;;;;19.30;12.60;;;11.00;76.30;;;;;;6183042;23;20009;-72
2021/05/15 08:11:11;;;;;;;17.52;12.68;;;11.10;76.10;;;;;;6180947;23;20017;-70
2021/05/15 08:13:39;;;;;;;18.13;12.70;;;11.10;76.30;;;;;;6182419;23;20017;-70
2021/05/15 08:16:05;;;;;;;19.38;13.80;;;11.10;77.20;;;;;;6155771;23;20013;-74
2021/05/15 08:18:31;;;;;;;18.42;12.82;;;11.00;77.70;;;;;;6155931;23;20017;-74
2021/05/15 08:20:57;;;;;;;17.85;14.50;;;11.00;78.10;;;;;;6156726;23;20335;-74
2021/05/15 08:23:23;;;;;;;20.13;13.85;;;10.90;78.10;;;;;;6181156;23;20013;-70
2021/05/15 08:25:48;;;;;;;21.85;15.48;;;10.90;78.20;;;;;;6181726;23;20020;-72
2021/05/15 08:28:16;;;;;;;22.88;16.50;;;10.80;79.30;;;;;;6182437;23;20013;-72
2021/05/15 08:30:43;;;;;;;19.88;15.50;;;10.70;79.70;;;;;;6155851;23;20020;-72
2021/05/15 08:33:09;;;;;;;23.83;16.08;;;10.70;80.00;;;;;;6181314;23;20434;-71
2021/05/15 08:35:36;;;;;;;22.80;14.98;;;10.70;80.10;;;;;;6155474;23;20526;-70
2021/05/15 08:38:04;;;;;;;23.60;16.33;;;10.60;80.00;;;;;;6183509;23;20435;-72
2021/05/15 08:40:32;;;;;;;20.15;14.52;;;10.60;80.10;;;;;;6180520;23;20025;-72
2021/05/15 08:42:57;;;;;;;22.08;15.43;;;10.50;80.20;;;;;;6181950;23;20024;-72
2021/05/15 08:45:25;;;;;;;20.98;14.75;;;10.50;80.80;;;;;;6180153;23;20017;-72
2021/05/15 08:47:53;;;;;;;21.15;14.25;;;10.60;80.70;;;;;;6180871;23;20024;-72
2021/05/15 08:50:24;;;;;;;20.30;14.77;;;10.70;80.80;;;;;;6181517;23;20131;-72
2021/05/15 08:52:53;;;;;;;22.23;14.95;;;10.60;80.50;;;;;;6183266;23;20013;-72
2021/05/15 08:55:27;;;;;;;22.77;16.00;;;10.70;80.60;;;;;;6182405;23;20013;-71
2021/05/15 08:57:54;;;;;;;20.98;15.43;;;10.80;80.40;;;;;;6183257;23;20805;-72
2021/05/15 09:00:24;;;;;;;24.83;15.55;;;10.80;79.80;;;;;;6181953;23;20148;-71
2021/05/15 09:02:56;;;;;;;19.08;14.75;;;10.80;79.10;;;;;;6182335;23;20464;-72
2021/05/15 09:05:23;;;;;;;22.92;16.35;;;10.80;79.30;;;;;;6182660;23;20547;-72
2021/05/15 09:07:52;;;;;;;19.73;13.70;;;10.80;79.50;;;;;;6181524;23;20017;-72
2021/05/15 09:10:21;;;;;;;19.80;13.70;;;10.80;79.60;;;;;;6181933;23;20088;-72
2021/05/15 09:12:47;;;;;;;21.73;16.30;;;10.80;79.60;;;;;;6182336;23;20009;-72
2021/05/15 09:15:14;;;;;;;26.13;16.10;;;10.70;79.60;;;;;;6183764;23;20066;-72
2021/05/15 09:17:51;;;;;;;22.52;15.32;;;10.80;79.60;;;;;;6131404;23;20020;-72
2021/05/15 09:20:28;;;;;;;23.13;16.25;;;10.90;80.00;;;;;;6156340;23;20376;-71
2021/05/15 09:22:54;;;;;;;24.10;15.70;;;11.00;79.80;;;;;;6179698;23;20013;-71
2021/05/15 09:25:20;;;;;;;23.55;16.65;;;11.10;79.70;;;;;;6181671;23;20041;-71
2021/05/15 09:27:46;;;;;;;21.00;16.15;;;11.10;79.60;;;;;;6155070;23;20048;-71
2021/05/15 09:30:13;;;;;;;27.63;16.25;;;11.20;79.70;;;;;;6181193;23;20017;-70
2021/05/15 09:32:40;;;;;;;25.20;16.77;;;11.20;79.50;;;;;;6181573;23;20072;-70
2021/05/15 09:35:07;;;;;;;21.67;17.20;;;11.30;79.70;;;;;;6182484;23;20104;-70
2021/05/15 09:37:42;;;;;;;25.05;16.17;;;11.40;79.50;;;;;;6181932;23;20764;-70
2021/05/15 09:40:20;;;;;;;24.25;17.73;;;11.40;78.90;;;;;;6154306;23;20063;-70
2021/05/15 09:42:54;;;;;;;22.60;16.83;;;11.40;78.70;;;;;;6181315;23;20024;-70
2021/05/15 09:45:31;;;;;;;24.77;17.17;;;11.30;78.80;;;;;;6181730;23;20020;-70
2021/05/15 09:47:59;;;;;;;23.52;17.27;;;11.30;79.30;;;;;;6182084;23;20048;-70
2021/05/15 09:50:28;;;;;;;22.52;16.77;;;11.30;79.30;;;;;;6181686;23;20014;-70
2021/05/15 09:53:14;;;;;;;26.05;17.40;;;11.40;79.50;;;;;;6179247;23;20017;-70
2021/05/15 09:55:52;;;;;;;23.48;16.17;;;11.50;79.70;;;;;;6179083;23;20024;-71
2021/05/15 09:58:18;;;;;;;25.67;17.25;;;11.50;79.80;;;;;;6179414;23;20035;-72
2021/05/15 10:00:47;;;;;;;28.60;17.65;;;11.60;78.90;;;;;;6181642;23;20067;-73
2021/05/15 10:03:21;;;;;;;28.52;17.33;;;11.60;78.40;;;;;;6182650;23;20125;-72
2021/05/15 10:06:00;;;;;;;30.50;18.90;;;11.50;78.70;;;;;;6182606;23;20009;-73
2021/05/15 10:08:26;;;;;;;32.70;20.00;;;11.50;79.20;;;;;;6182284;23;20325;-73
2021/05/15 10:10:52;;;;;;;33.13;21.30;;;11.50;79.50;;;;;;6155838;23;20020;-73
2021/05/15 10:13:20;;;;;;;37.22;21.80;;;11.60;79.50;;;;;;6183262;23;20013;-73
2021/05/15 10:15:46;;;;;;;32.95;22.85;;;11.50;79.20;;;;;;6182086;23;20144;-73
2021/05/15 10:18:13;;;;;;;35.42;23.00;;;11.60;79.40;;;;;;6182662;23;20017;-73
2021/05/15 10:20:40;;;;;;;36.63;23.25;;;11.50;79.40;;;;;;6182235;23;20017;-73
2021/05/15 10:23:22;;;;;;;35.97;24.13;;;11.50;79.70;;;;;;6180834;23;20091;-73
2021/05/15 10:25:49;;;;;;;38.30;24.33;;;11.50;80.00;;;;;;6154404;23;20017;-73
2021/05/15 10:28:26;;;;;;;42.95;26.50;;;11.50;80.40;;;;;;6181529;23;20009;-73
2021/05/15 10:31:06;;;;;;;45.15;26.30;;;11.60;80.80;;;;;;6155007;23;20017;-73
2021/05/15 10:33:32;;;;;;;41.63;27.65;;;11.70;80.60;;;;;;6181794;23;20013;-73
2021/05/15 10:35:58;;;;;;;38.40;26.92;;;11.70;80.60;;;;;;6182579;23;20493;-73
2021/05/15 10:38:38;;;;;;;40.53;27.48;;;11.80;80.40;;;;;;6182414;23;20044;-73
2021/05/15 10:41:25;;;;;;;38.08;26.20;;;11.80;80.00;;;;;;6151246;23;20021;-72
2021/05/15 10:43:53;;;;;;;38.88;26.05;;;11.80;80.30;;;;;;6178253;23;20304;-73
2021/05/15 10:46:24;;;;;;;38.50;27.50;;;11.80;80.60;;;;;;6180476;23;20786;-73
2021/05/15 10:49:16;;;;;;;38.30;26.17;;;11.90;80.40;;;;;;6178855;23;20045;-73
2021/05/15 10:51:44;;;;;;;41.05;26.40;;;11.90;80.00;;;;;;6178930;23;20066;-73
2021/05/15 10:54:13;;;;;;;39.67;27.33;;;11.90;80.20;;;;;;6181585;23;20041;-73
2021/05/15 10:56:39;;;;;;;37.83;27.30;;;11.90;80.30;;;;;;6181096;23;20020;-74
2021/05/15 10:59:08;;;;;;;37.80;26.83;;;11.90;80.50;;;;;;6181728;23;20103;-73
2021/05/15 11:01:56;;;;;;;38.03;25.52;;;11.80;80.60;;;;;;6153975;23;20460;-74
2021/05/15 11:04:30;;;;;;;38.17;25.65;;;11.90;80.40;;;;;;6180974;23;20017;-73
2021/05/15 11:07:13;;;;;;;;;;;11.90;80.40;;;;;;6183090;23;20024;-72
2021/05/15 11:09:54;;;;;;;32.53;23.58;;;12.10;80.30;;;;;;6179882;23;19916;-72
2021/05/15 11:12:21;;;;;;;35.20;25.65;;;12.20;80.10;;;;;;6180639;23;20444;-71
2021/05/15 11:14:52;;;;;;;30.67;21.27;;;12.30;80.10;;;;;;6180754;23;20088;-72
2021/05/15 11:17:21;;;;;;;36.92;26.77;;;12.40;80.40;;;;;;6180418;23;20025;-72
2021/05/15 11:19:53;;;;;;;32.85;25.60;;;12.40;79.60;;;;;;6181353;23;20013;-72
2021/05/15 11:22:20;;;;;;;37.28;25.95;;;12.40;79.00;;;;;;6182453;23;20033;-72
2021/05/15 11:24:56;;;;;;;37.28;26.98;;;12.40;79.00;;;;;;6180826;23;20343;-72
2021/05/15 11:27:23;;;;;;;38.30;27.70;;;12.40;79.10;;;;;;6154941;23;20013;-72
2021/05/15 11:30:05;;;;;;;40.05;26.95;;;12.50;79.50;;;;;;6180163;23;20017;-73
2021/05/15 11:32:30;;;;;;;32.70;22.65;;;12.50;79.50;;;;;;6181797;23;20017;-73
2021/05/15 11:34:56;;;;;;;41.58;27.85;;;12.60;79.60;;;;;;6179208;23;20020;-72
2021/05/15 11:37:22;;;;;;;37.65;26.10;;;12.70;78.80;;;;;;6180238;23;20024;-71
2021/05/15 11:39:54;;;;;;;38.22;27.05;;;12.80;78.20;;;;;;6181359;23;20024;-70
2021/05/15 11:42:20;;;;;;;41.45;27.75;;;12.90;77.90;;;;;;6181504;23;20091;-72
2021/05/15 11:44:52;;;;;;;37.75;28.00;;;13.10;77.50;;;;;;6179651;23;20347;-71
2021/05/15 11:47:21;;;;;;;33.40;24.88;;;13.20;77.00;;;;;;6181779;23;20035;-70
2021/05/15 11:49:55;;;;;;;34.83;25.45;;;13.30;76.50;;;;;;6181576;23;20013;-72
2021/05/15 11:52:29;;;;;;;29.88;21.10;;;13.30;75.90;;;;;;6180900;23;20024;-72
2021/05/15 11:54:55;;;;;;;39.75;26.52;;;13.30;77.20;;;;;;6155092;23;20017;-72
2021/05/15 11:57:26;;;;;;;35.03;25.75;;;13.40;77.30;;;;;;6153547;23;20017;-72
2021/05/15 11:59:52;;;;;;;34.78;25.55;;;13.60;77.00;;;;;;6180909;23;20017;-73
2021/05/15 12:02:17;;;;;;;38.40;25.48;;;13.60;76.20;;;;;;6180400;23;20024;-72
2021/05/15 12:04:44;;;;;;;34.92;25.30;;;13.60;76.00;;;;;;6179532;23;20451;-74
2021/05/15 12:07:14;;;;;;;34.60;25.55;;;13.50;75.90;;;;;;6178977;23;20344;-72
2021/05/15 12:09:39;;;;;;;32.45;23.67;;;13.70;76.00;;;;;;6180413;23;20099;-73
2021/05/15 12:12:08;;;;;;;35.75;26.10;;;14.00;75.60;;;;;;6179410;23;20021;-71
2021/05/15 12:14:37;;;;;;;35.47;26.70;;;14.10;75.10;;;;;;6180819;23;20019;-72
2021/05/15 12:17:05;;;;;;;36.35;24.67;;;14.00;74.60;;;;;;6178733;23;20430;-64
2021/05/15 12:19:31;;;;;;;28.65;19.90;;;13.90;74.70;;;;;;6179760;23;20447;-64
2021/05/15 12:22:08;;;;;;;29.60;22.10;;;13.90;75.70;;;;;;6182706;23;20024;-64
2021/05/15 12:24:36;;;;;;;34.20;26.40;;;13.90;76.10;;;;;;6156451;23;20017;-64
2021/05/15 12:27:18;;;;;;;38.60;27.25;;;13.90;75.20;;;;;;6180736;23;20020;-64
2021/05/15 12:29:45;;;;;;;35.08;27.30;;;13.90;74.60;;;;;;6154571;23;20096;-65
2021/05/15 12:32:11;;;;;;;24.85;19.63;;;13.80;75.10;;;;;;6183423;23;20017;-64
2021/05/15 12:34:38;;;;;;;33.72;24.88;;;14.10;76.00;;;;;;6154783;23;20040;-65
2021/05/15 12:37:20;;;;;;;29.40;23.80;;;14.20;74.60;;;;;;6180813;23;20079;-65
2021/05/15 12:39:46;;;;;;;35.30;25.08;;;14.30;74.40;;;;;;6180429;23;20028;-64